Terminal Aerodrome Forecast
Issued by NWS

Home | Current Version | Previous Version | Text Only | Print | Product List | Glossary On
Versions: 1 2 3 4 5 6 7 8 9 10 11 12 13 14 15 16 17 18 19 20 21 22 23 24 25 26 27 28 29 30 31 32 33 34 35 36 37 38 39 40 41 42 43
000
FTUS45 KBOU 020234 AAA
TAFAPA
TAF AMD
KAPA 020234Z 0203/0224 17006KT P6SM FEW120
     FM020500 20008KT P6SM FEW140 BKN200
     FM021500 VRB04KT P6SM FEW120 BKN220
     FM022000 30007KT P6SM SCT220
     FM022300 23006KT P6SM FEW220=

USA.gov is the U.S. government's official web portal to all federal, state and local government web resources and services.